sensor_id;sensor_type;location;lat;lon;timestamp;pressure;altitude;pressure_sealevel;temperature;humidity
74960;BME280;63518;49.572;1.106;2022-09-21T00:01:19;100596.25;;;8.70;81.27
74960;BME280;63518;49.572;1.106;2022-09-21T00:03:47;100593.94;;;8.31;80.75
74960;BME280;63518;49.572;1.106;2022-09-21T00:06:18;100589.75;;;8.17;80.35
74960;BME280;63518;49.572;1.106;2022-09-21T00:08:47;100582.47;;;8.11;80.15
74960;BME280;63518;49.572;1.106;2022-09-21T00:11:18;100581.63;;;7.99;79.92
74960;BME280;63518;49.572;1.106;2022-09-21T00:13:45;100584.13;;;8.00;80.59
74960;BME280;63518;49.572;1.106;2022-09-21T00:16:14;100578.66;;;8.00;79.65
74960;BME280;63518;49.572;1.106;2022-09-21T00:18:43;100583.31;;;8.00;79.50
74960;BME280;63518;49.572;1.106;2022-09-21T00:21:12;100587.94;;;7.99;80.17
74960;BME280;63518;49.572;1.106;2022-09-21T00:23:40;100580.09;;;8.26;80.90
74960;BME280;63518;49.572;1.106;2022-09-21T00:26:26;100579.19;;;8.79;81.29
74960;BME280;63518;49.572;1.106;2022-09-21T00:28:55;100584.09;;;8.77;81.89
74960;BME280;63518;49.572;1.106;2022-09-21T00:31:23;100587.78;;;8.71;82.16
74960;BME280;63518;49.572;1.106;2022-09-21T00:33:51;100589.75;;;9.11;82.59
74960;BME280;63518;49.572;1.106;2022-09-21T00:36:21;100591.47;;;9.29;81.38
74960;BME280;63518;49.572;1.106;2022-09-21T00:38:50;100568.03;;;9.09;81.91
74960;BME280;63518;49.572;1.106;2022-09-21T00:41:17;100588.22;;;9.03;81.16
74960;BME280;63518;49.572;1.106;2022-09-21T00:43:48;100583.72;;;8.50;79.62
74960;BME280;63518;49.572;1.106;2022-09-21T00:46:35;100588.34;;;8.15;79.64
74960;BME280;63518;49.572;1.106;2022-09-21T00:49:05;100586.97;;;7.94;80.60
74960;BME280;63518;49.572;1.106;2022-09-21T00:51:33;100590.53;;;7.82;80.81
74960;BME280;63518;49.572;1.106;2022-09-21T00:54:04;100584.03;;;7.65;81.34
74960;BME280;63518;49.572;1.106;2022-09-21T00:56:34;100587.59;;;7.66;80.43
74960;BME280;63518;49.572;1.106;2022-09-21T00:59:03;100584.25;;;7.64;81.05
74960;BME280;63518;49.572;1.106;2022-09-21T01:01:31;100575.97;;;7.70;80.76
74960;BME280;63518;49.572;1.106;2022-09-21T01:03:58;100590.16;;;7.79;81.22
74960;BME280;63518;49.572;1.106;2022-09-21T01:06:26;100581.56;;;7.75;80.73
74960;BME280;63518;49.572;1.106;2022-09-21T01:08:54;100585.75;;;7.78;81.02
74960;BME280;63518;49.572;1.106;2022-09-21T01:11:41;100578.25;;;7.85;81.30
74960;BME280;63518;49.572;1.106;2022-09-21T01:14:31;100578.84;;;7.87;81.49
74960;BME280;63518;49.572;1.106;2022-09-21T01:22:53;100590.56;;;7.64;81.34
74960;BME280;63518;49.572;1.106;2022-09-21T01:28:14;100580.69;;;7.63;81.38
74960;BME280;63518;49.572;1.106;2022-09-21T01:30:48;100579.94;;;7.56;80.72
74960;BME280;63518;49.572;1.106;2022-09-21T01:33:28;100578.13;;;7.50;80.71
74960;BME280;63518;49.572;1.106;2022-09-21T01:36:07;100590.31;;;7.54;81.36
74960;BME280;63518;49.572;1.106;2022-09-21T01:38:39;100585.66;;;7.54;81.41
74960;BME280;63518;49.572;1.106;2022-09-21T01:41:11;100576.47;;;7.49;81.46
74960;BME280;63518;49.572;1.106;2022-09-21T01:43:44;100578.78;;;7.64;81.37
74960;BME280;63518;49.572;1.106;2022-09-21T01:46:18;100580.84;;;7.68;81.96
74960;BME280;63518;49.572;1.106;2022-09-21T01:48:54;100577.34;;;7.61;81.19
74960;BME280;63518;49.572;1.106;2022-09-21T01:51:25;100567.72;;;7.59;81.17
74960;BME280;63518;49.572;1.106;2022-09-21T01:53:57;100579.25;;;7.61;80.96
74960;BME280;63518;49.572;1.106;2022-09-21T01:56:58;100574.03;;;7.59;81.04
74960;BME280;63518;49.572;1.106;2022-09-21T01:59:41;100572.97;;;7.60;81.07
74960;BME280;63518;49.572;1.106;2022-09-21T02:02:16;100573.28;;;7.52;81.34
74960;BME280;63518;49.572;1.106;2022-09-21T02:04:45;100586.34;;;7.50;81.72
74960;BME280;63518;49.572;1.106;2022-09-21T02:07:12;100580.75;;;7.45;81.70
74960;BME280;63518;49.572;1.106;2022-09-21T02:09:41;100590.44;;;7.29;81.37
74960;BME280;63518;49.572;1.106;2022-09-21T02:12:08;100580.31;;;7.30;81.68
74960;BME280;63518;49.572;1.106;2022-09-21T02:14:35;100587.31;;;7.25;81.94
74960;BME280;63518;49.572;1.106;2022-09-21T02:17:31;100593.78;;;7.13;81.46
74960;BME280;63518;49.572;1.106;2022-09-21T02:20:45;100590.34;;;7.17;81.96
74960;BME280;63518;49.572;1.106;2022-09-21T02:23:28;100580.25;;;7.18;82.11
74960;BME280;63518;49.572;1.106;2022-09-21T02:28:38;100586.44;;;7.13;81.66
74960;BME280;63518;49.572;1.106;2022-09-21T02:31:11;100591.91;;;7.13;81.93
74960;BME280;63518;49.572;1.106;2022-09-21T02:33:46;100581.41;;;7.10;81.86
74960;BME280;63518;49.572;1.106;2022-09-21T02:36:27;100574.50;;;7.08;81.51
74960;BME280;63518;49.572;1.106;2022-09-21T02:39:05;100577.69;;;7.05;81.91
74960;BME280;63518;49.572;1.106;2022-09-21T02:41:39;100579.28;;;7.12;82.67
74960;BME280;63518;49.572;1.106;2022-09-21T02:44:19;100579.38;;;7.06;81.91
74960;BME280;63518;49.572;1.106;2022-09-21T02:46:58;100582.09;;;7.06;81.56
74960;BME280;63518;49.572;1.106;2022-09-21T02:49:31;100577.47;;;7.06;81.66
74960;BME280;63518;49.572;1.106;2022-09-21T02:52:04;100581.41;;;7.10;81.66
74960;BME280;63518;49.572;1.106;2022-09-21T02:54:34;100578.00;;;7.15;81.82
74960;BME280;63518;49.572;1.106;2022-09-21T02:57:03;100582.03;;;7.12;81.49
74960;BME280;63518;49.572;1.106;2022-09-21T02:59:30;100583.31;;;7.10;81.17
74960;BME280;63518;49.572;1.106;2022-09-21T03:01:58;100579.81;;;7.03;81.64
74960;BME280;63518;49.572;1.106;2022-09-21T03:04:25;100588.47;;;6.99;81.78
74960;BME280;63518;49.572;1.106;2022-09-21T03:06:55;100581.63;;;7.09;81.86
74960;BME280;63518;49.572;1.106;2022-09-21T03:09:22;100582.78;;;7.01;81.96
74960;BME280;63518;49.572;1.106;2022-09-21T03:11:50;100590.34;;;7.17;82.60
74960;BME280;63518;49.572;1.106;2022-09-21T03:14:17;100582.25;;;7.71;83.93
74960;BME280;63518;49.572;1.106;2022-09-21T03:16:45;100583.53;;;8.10;84.23
74960;BME280;63518;49.572;1.106;2022-09-21T03:19:12;100586.50;;;7.97;82.90
74960;BME280;63518;49.572;1.106;2022-09-21T03:21:39;100583.00;;;7.48;82.05
74960;BME280;63518;49.572;1.106;2022-09-21T03:24:11;100582.97;;;7.18;81.91
74960;BME280;63518;49.572;1.106;2022-09-21T03:26:38;100592.03;;;7.18;81.83
74960;BME280;63518;49.572;1.106;2022-09-21T03:29:05;100587.41;;;7.49;83.14
74960;BME280;63518;49.572;1.106;2022-09-21T03:31:32;100589.44;;;7.23;82.42
74960;BME280;63518;49.572;1.106;2022-09-21T03:34:00;100593.00;;;7.24;82.16
74960;BME280;63518;49.572;1.106;2022-09-21T03:36:27;100592.13;;;7.42;82.88
74960;BME280;63518;49.572;1.106;2022-09-21T03:38:54;100589.31;;;7.48;82.90
74960;BME280;63518;49.572;1.106;2022-09-21T03:41:21;100589.44;;;7.23;82.61
74960;BME280;63518;49.572;1.106;2022-09-21T03:43:48;100587.84;;;7.16;82.21
74960;BME280;63518;49.572;1.106;2022-09-21T03:46:15;100591.81;;;7.02;81.69
74960;BME280;63518;49.572;1.106;2022-09-21T03:48:42;100571.72;;;6.96;82.09
74960;BME280;63518;49.572;1.106;2022-09-21T03:51:13;100567.91;;;6.97;81.95
74960;BME280;63518;49.572;1.106;2022-09-21T03:53:40;100576.03;;;7.04;82.34
74960;BME280;63518;49.572;1.106;2022-09-21T03:56:07;100573.81;;;6.94;82.38
74960;BME280;63518;49.572;1.106;2022-09-21T03:58:33;100580.97;;;6.77;83.01
74960;BME280;63518;49.572;1.106;2022-09-21T04:01:01;100572.94;;;6.82;82.90
74960;BME280;63518;49.572;1.106;2022-09-21T04:03:29;100568.66;;;6.86;83.23
74960;BME280;63518;49.572;1.106;2022-09-21T04:05:55;100568.00;;;6.72;82.97
74960;BME280;63518;49.572;1.106;2022-09-21T04:08:22;100573.22;;;6.74;82.65
74960;BME280;63518;49.572;1.106;2022-09-21T04:10:49;100570.09;;;6.70;82.82
74960;BME280;63518;49.572;1.106;2022-09-21T04:13:16;100569.44;;;6.75;82.71
74960;BME280;63518;49.572;1.106;2022-09-21T04:15:43;100569.66;;;6.73;82.87
74960;BME280;63518;49.572;1.106;2022-09-21T04:18:10;100570.09;;;6.70;82.29
74960;BME280;63518;49.572;1.106;2022-09-21T04:20:37;100572.16;;;6.75;82.99
74960;BME280;63518;49.572;1.106;2022-09-21T04:23:04;100568.97;;;6.78;82.50
74960;BME280;63518;49.572;1.106;2022-09-21T04:25:35;100551.19;;;6.68;82.95
74960;BME280;63518;49.572;1.106;2022-09-21T04:28:02;100572.41;;;6.73;82.20
74960;BME280;63518;49.572;1.106;2022-09-21T04:30:29;100578.63;;;6.80;83.26
74960;BME280;63518;49.572;1.106;2022-09-21T04:33:03;100575.34;;;6.71;81.94
74960;BME280;63518;49.572;1.106;2022-09-21T04:35:30;100569.66;;;6.91;82.62
74960;BME280;63518;49.572;1.106;2022-09-21T04:37:58;100558.69;;;7.70;84.74
74960;BME280;63518;49.572;1.106;2022-09-21T04:40:25;100565.19;;;7.57;83.16
74960;BME280;63518;49.572;1.106;2022-09-21T04:42:52;100575.53;;;7.43;83.80
74960;BME280;63518;49.572;1.106;2022-09-21T04:45:21;100571.53;;;7.09;81.82
74960;BME280;63518;49.572;1.106;2022-09-21T04:47:48;100572.53;;;6.96;82.50
74960;BME280;63518;49.572;1.106;2022-09-21T04:50:15;100574.56;;;7.01;82.60
74960;BME280;63518;49.572;1.106;2022-09-21T04:52:42;100580.50;;;6.98;83.24
74960;BME280;63518;49.572;1.106;2022-09-21T04:55:09;100563.19;;;7.04;82.98
74960;BME280;63518;49.572;1.106;2022-09-21T04:57:36;100575.94;;;7.59;84.41
74960;BME280;63518;49.572;1.106;2022-09-21T05:00:06;100567.00;;;7.33;83.10
74960;BME280;63518;49.572;1.106;2022-09-21T05:02:34;100577.53;;;7.48;82.84
74960;BME280;63518;49.572;1.106;2022-09-21T05:05:00;100579.22;;;7.49;84.45
74960;BME280;63518;49.572;1.106;2022-09-21T05:07:28;100568.66;;;7.64;83.88
74960;BME280;63518;49.572;1.106;2022-09-21T05:09:54;100568.13;;;7.44;83.42
74960;BME280;63518;49.572;1.106;2022-09-21T05:12:31;100578.75;;;7.52;83.30
74960;BME280;63518;49.572;1.106;2022-09-21T05:14:58;100570.72;;;7.39;83.43
74960;BME280;63518;49.572;1.106;2022-09-21T05:17:25;100572.88;;;7.67;83.47
74960;BME280;63518;49.572;1.106;2022-09-21T05:19:54;100575.09;;;8.11;84.96
74960;BME280;63518;49.572;1.106;2022-09-21T05:22:21;100569.28;;;8.78;86.42
74960;BME280;63518;49.572;1.106;2022-09-21T05:24:47;100559.75;;;9.21;84.98
74960;BME280;63518;49.572;1.106;2022-09-21T05:27:14;100561.00;;;9.42;84.33
74960;BME280;63518;49.572;1.106;2022-09-21T05:29:41;100560.06;;;9.36;84.43
74960;BME280;63518;49.572;1.106;2022-09-21T05:40:32;100571.16;;;9.87;83.83
74960;BME280;63518;49.572;1.106;2022-09-21T05:43:00;100567.56;;;9.86;83.37
74960;BME280;63518;49.572;1.106;2022-09-21T05:45:30;100565.06;;;9.39;83.18
74960;BME280;63518;49.572;1.106;2022-09-21T05:48:16;100576.44;;;9.60;84.58
74960;BME280;63518;49.572;1.106;2022-09-21T05:50:51;100565.06;;;9.68;84.57
74960;BME280;63518;49.572;1.106;2022-09-21T05:53:36;100570.41;;;9.74;84.37
74960;BME280;63518;49.572;1.106;2022-09-21T06:02:04;100573.69;;;10.22;83.29
74960;BME280;63518;49.572;1.106;2022-09-21T06:04:33;100574.88;;;10.26;83.73
74960;BME280;63518;49.572;1.106;2022-09-21T06:07:00;100566.88;;;10.24;83.76
74960;BME280;63518;49.572;1.106;2022-09-21T06:09:27;100565.63;;;10.32;84.79
74960;BME280;63518;49.572;1.106;2022-09-21T06:11:54;100566.72;;;10.31;84.60
74960;BME280;63518;49.572;1.106;2022-09-21T06:14:21;100561.88;;;10.38;83.93
74960;BME280;63518;49.572;1.106;2022-09-21T06:16:51;100562.38;;;10.52;84.52
74960;BME280;63518;49.572;1.106;2022-09-21T06:19:18;100565.16;;;10.57;84.96
74960;BME280;63518;49.572;1.106;2022-09-21T06:21:45;100553.13;;;10.41;83.46
74960;BME280;63518;49.572;1.106;2022-09-21T06:24:12;100562.00;;;10.65;85.25
74960;BME280;63518;49.572;1.106;2022-09-21T06:26:39;100565.97;;;10.74;85.00
74960;BME280;63518;49.572;1.106;2022-09-21T06:29:06;100568.31;;;10.82;84.87
74960;BME280;63518;49.572;1.106;2022-09-21T06:31:32;100565.47;;;10.77;84.61
74960;BME280;63518;49.572;1.106;2022-09-21T06:34:00;100570.16;;;10.77;83.28
74960;BME280;63518;49.572;1.106;2022-09-21T06:36:28;100574.75;;;10.71;82.32
74960;BME280;63518;49.572;1.106;2022-09-21T06:38:55;100572.38;;;10.80;83.40
74960;BME280;63518;49.572;1.106;2022-09-21T06:41:22;100567.97;;;10.79;82.93
74960;BME280;63518;49.572;1.106;2022-09-21T06:43:52;100578.63;;;10.92;83.35
74960;BME280;63518;49.572;1.106;2022-09-21T06:46:21;100568.97;;;10.73;84.27
74960;BME280;63518;49.572;1.106;2022-09-21T06:48:49;100578.84;;;10.69;84.36
74960;BME280;63518;49.572;1.106;2022-09-21T06:51:16;100575.06;;;10.75;84.48
74960;BME280;63518;49.572;1.106;2022-09-21T06:53:42;100583.03;;;10.93;84.27
74960;BME280;63518;49.572;1.106;2022-09-21T06:56:09;100560.56;;;11.01;83.34
74960;BME280;63518;49.572;1.106;2022-09-21T06:58:36;100584.25;;;11.24;83.61
74960;BME280;63518;49.572;1.106;2022-09-21T07:01:08;100579.69;;;11.35;82.44
74960;BME280;63518;49.572;1.106;2022-09-21T07:03:37;100574.44;;;11.33;82.45
74960;BME280;63518;49.572;1.106;2022-09-21T07:06:05;100583.41;;;11.45;81.65
74960;BME280;63518;49.572;1.106;2022-09-21T07:08:32;100577.56;;;11.42;80.91
74960;BME280;63518;49.572;1.106;2022-09-21T07:11:20;100585.38;;;11.50;81.17
74960;BME280;63518;49.572;1.106;2022-09-21T07:13:49;100578.34;;;11.37;81.09
74960;BME280;63518;49.572;1.106;2022-09-21T07:16:16;100577.91;;;11.45;80.88
74960;BME280;63518;49.572;1.106;2022-09-21T07:18:44;100577.69;;;11.52;80.86
74960;BME280;63518;49.572;1.106;2022-09-21T07:21:11;100580.88;;;11.66;80.35
74960;BME280;63518;49.572;1.106;2022-09-21T07:23:38;100579.31;;;11.48;79.96
74960;BME280;63518;49.572;1.106;2022-09-21T07:26:08;100574.94;;;11.79;79.94
74960;BME280;63518;49.572;1.106;2022-09-21T07:28:36;100576.25;;;11.98;79.04
74960;BME280;63518;49.572;1.106;2022-09-21T07:33:35;100574.06;;;11.73;77.75
74960;BME280;63518;49.572;1.106;2022-09-21T07:36:03;100572.88;;;11.91;77.99
74960;BME280;63518;49.572;1.106;2022-09-21T07:38:37;100575.00;;;12.11;77.62
74960;BME280;63518;49.572;1.106;2022-09-21T07:41:09;100567.13;;;12.25;77.47
74960;BME280;63518;49.572;1.106;2022-09-21T07:43:36;100569.84;;;12.57;78.49
74960;BME280;63518;49.572;1.106;2022-09-21T07:46:07;100564.31;;;12.57;77.62
74960;BME280;63518;49.572;1.106;2022-09-21T07:48:35;100562.16;;;12.64;76.09
74960;BME280;63518;49.572;1.106;2022-09-21T07:51:04;100567.28;;;12.93;76.50
74960;BME280;63518;49.572;1.106;2022-09-21T07:53:34;100564.16;;;13.31;75.78
74960;BME280;63518;49.572;1.106;2022-09-21T07:56:02;100566.25;;;13.04;73.72
74960;BME280;63518;49.572;1.106;2022-09-21T07:58:30;100574.47;;;13.56;72.76
74960;BME280;63518;49.572;1.106;2022-09-21T08:01:16;100568.66;;;13.48;71.98
74960;BME280;63518;49.572;1.106;2022-09-21T08:03:53;100570.97;;;13.13;75.10
74960;BME280;63518;49.572;1.106;2022-09-21T08:06:22;100571.44;;;13.53;72.91
74960;BME280;63518;49.572;1.106;2022-09-21T08:08:50;100568.16;;;13.76;72.56
74960;BME280;63518;49.572;1.106;2022-09-21T08:11:26;100573.47;;;14.69;72.54
74960;BME280;63518;49.572;1.106;2022-09-21T08:13:56;100575.97;;;14.45;69.80
74960;BME280;63518;49.572;1.106;2022-09-21T08:16:25;100580.81;;;15.10;71.46
74960;BME280;63518;49.572;1.106;2022-09-21T08:18:52;100578.09;;;15.59;69.97
74960;BME280;63518;49.572;1.106;2022-09-21T08:21:19;100577.19;;;15.14;66.72
74960;BME280;63518;49.572;1.106;2022-09-21T08:23:47;100570.91;;;14.93;67.62
74960;BME280;63518;49.572;1.106;2022-09-21T08:26:17;100572.84;;;15.57;66.56
74960;BME280;63518;49.572;1.106;2022-09-21T08:28:46;100578.34;;;14.98;66.86
74960;BME280;63518;49.572;1.106;2022-09-21T08:31:16;100573.53;;;15.29;65.71
74960;BME280;63518;49.572;1.106;2022-09-21T08:33:46;100573.19;;;15.95;65.25
74960;BME280;63518;49.572;1.106;2022-09-21T08:36:13;100577.97;;;15.84;62.88
74960;BME280;63518;49.572;1.106;2022-09-21T08:38:40;100580.81;;;15.74;62.32
74960;BME280;63518;49.572;1.106;2022-09-21T08:41:17;100576.63;;;17.08;62.80
74960;BME280;63518;49.572;1.106;2022-09-21T08:44:01;100574.88;;;17.12;58.67
74960;BME280;63518;49.572;1.106;2022-09-21T08:46:31;100573.69;;;16.02;61.16
74960;BME280;63518;49.572;1.106;2022-09-21T08:49:06;100581.13;;;15.73;60.88
74960;BME280;63518;49.572;1.106;2022-09-21T08:51:43;100575.06;;;16.05;60.31
74960;BME280;63518;49.572;1.106;2022-09-21T08:54:22;100574.78;;;16.06;57.92
74960;BME280;63518;49.572;1.106;2022-09-21T08:56:52;100573.06;;;16.10;57.60
74960;BME280;63518;49.572;1.106;2022-09-21T08:59:33;100577.88;;;16.34;58.12
74960;BME280;63518;49.572;1.106;2022-09-21T09:04:51;100190.16;;;16.53;58.21
74960;BME280;63518;49.572;1.106;2022-09-21T09:21:15;100574.97;;;21.73;48.99
74960;BME280;63518;49.572;1.106;2022-09-21T09:24:01;100579.56;;;20.36;50.22
74960;BME280;63518;49.572;1.106;2022-09-21T09:26:38;100581.66;;;18.76;52.82
74960;BME280;63518;49.572;1.106;2022-09-21T09:32:00;100579.25;;;17.18;55.38
74960;BME280;63518;49.572;1.106;2022-09-21T09:34:52;66307.34;;;-144.18;100.00
74960;BME280;63518;49.572;1.106;2022-09-21T09:37:30;66307.34;;;-144.18;100.00
74960;BME280;63518;49.572;1.106;2022-09-21T09:39:59;66307.34;;;-144.18;100.00
74960;BME280;63518;49.572;1.106;2022-09-21T09:48:03;66307.34;;;-144.18;100.00
74960;BME280;63518;49.572;1.106;2022-09-21T09:50:35;66307.34;;;-144.18;100.00
74960;BME280;63518;49.572;1.106;2022-09-21T09:53:19;66307.34;;;-144.18;100.00
74960;BME280;63518;49.572;1.106;2022-09-21T09:55:51;66307.34;;;-144.18;100.00
74960;BME280;63518;49.572;1.106;2022-09-21T09:58:35;66307.34;;;-144.18;100.00
74960;BME280;63518;49.572;1.106;2022-09-21T10:01:05;66307.34;;;-144.18;100.00
74960;BME280;63518;49.572;1.106;2022-09-21T10:03:32;66307.34;;;-144.18;100.00
74960;BME280;63518;49.572;1.106;2022-09-21T10:05:59;66307.34;;;-144.18;100.00
74960;BME280;63518;49.572;1.106;2022-09-21T10:08:42;66307.34;;;-144.18;100.00
74960;BME280;63518;49.572;1.106;2022-09-21T10:11:11;66307.34;;;-144.18;100.00
74960;BME280;63518;49.572;1.106;2022-09-21T10:13:46;66307.34;;;-144.18;100.00
74960;BME280;63518;49.572;1.106;2022-09-21T10:16:18;66307.34;;;-144.18;100.00
74960;BME280;63518;49.572;1.106;2022-09-21T10:18:47;66307.34;;;-144.18;100.00
74960;BME280;63518;49.572;1.106;2022-09-21T10:21:38;66307.34;;;-144.18;100.00
74960;BME280;63518;49.572;1.106;2022-09-21T10:24:35;66307.34;;;-144.18;100.00
74960;BME280;63518;49.572;1.106;2022-09-21T10:27:12;66307.34;;;-144.18;100.00
74960;BME280;63518;49.572;1.106;2022-09-21T10:29:41;66307.34;;;-144.18;100.00
74960;BME280;63518;49.572;1.106;2022-09-21T10:37:29;66307.34;;;-144.18;100.00
74960;BME280;63518;49.572;1.106;2022-09-21T10:39:56;66307.34;;;-144.18;100.00
74960;BME280;63518;49.572;1.106;2022-09-21T10:42:24;66307.34;;;-144.18;100.00
74960;BME280;63518;49.572;1.106;2022-09-21T10:45:02;66307.34;;;-144.18;100.00
74960;BME280;63518;49.572;1.106;2022-09-21T10:47:39;66307.34;;;-144.18;100.00
74960;BME280;63518;49.572;1.106;2022-09-21T10:50:33;66307.34;;;-144.18;100.00
74960;BME280;63518;49.572;1.106;2022-09-21T10:55:39;100579.25;;;17.18;55.38
74960;BME280;63518;49.572;1.106;2022-09-21T10:58:24;100561.91;;;17.50;50.59
74960;BME280;63518;49.572;1.106;2022-09-21T11:00:54;100564.56;;;18.17;52.37
74960;BME280;63518;49.572;1.106;2022-09-21T11:03:43;100563.94;;;19.90;50.40
74960;BME280;63518;49.572;1.106;2022-09-21T11:06:29;100553.56;;;21.86;48.78
74960;BME280;63518;49.572;1.106;2022-09-21T11:09:02;100553.16;;;23.21;40.26
74960;BME280;63518;49.572;1.106;2022-09-21T11:17:18;100549.66;;;19.42;47.28
74960;BME280;63518;49.572;1.106;2022-09-21T11:19:53;100542.75;;;18.84;48.39
74960;BME280;63518;49.572;1.106;2022-09-21T11:22:39;100551.22;;;19.34;51.52
74960;BME280;63518;49.572;1.106;2022-09-21T11:28:18;100548.09;;;19.99;48.22
74960;BME280;63518;49.572;1.106;2022-09-21T11:36:21;100534.47;;;18.19;50.20
74960;BME280;63518;49.572;1.106;2022-09-21T11:39:22;100538.31;;;18.83;48.73
74960;BME280;63518;49.572;1.106;2022-09-21T11:42:09;100526.13;;;19.84;46.53
74960;BME280;63518;49.572;1.106;2022-09-21T11:44:50;100528.47;;;19.55;47.77
74960;BME280;63518;49.572;1.106;2022-09-21T11:53:13;100524.09;;;21.88;39.62
74960;BME280;63518;49.572;1.106;2022-09-21T12:01:00;100522.16;;;23.47;40.01
74960;BME280;63518;49.572;1.106;2022-09-21T12:03:48;100512.81;;;21.28;43.43
74960;BME280;63518;49.572;1.106;2022-09-21T12:06:42;100515.56;;;20.71;43.99
74960;BME280;63518;49.572;1.106;2022-09-21T12:09:49;100522.97;;;19.99;46.96
74960;BME280;63518;49.572;1.106;2022-09-21T12:12:28;100521.13;;;19.59;47.35
74960;BME280;63518;49.572;1.106;2022-09-21T12:18:02;100512.50;;;18.31;48.30
74960;BME280;63518;49.572;1.106;2022-09-21T12:23:22;100500.41;;;19.23;49.09
74960;BME280;63518;49.572;1.106;2022-09-21T12:25:55;100513.69;;;20.35;47.47
74960;BME280;63518;49.572;1.106;2022-09-21T12:28:30;100495.81;;;19.69;47.54
74960;BME280;63518;49.572;1.106;2022-09-21T12:31:02;100494.13;;;20.57;44.74
74960;BME280;63518;49.572;1.106;2022-09-21T12:33:40;100494.38;;;22.95;42.25
74960;BME280;63518;49.572;1.106;2022-09-21T12:36:41;100485.91;;;23.33;40.80
74960;BME280;63518;49.572;1.106;2022-09-21T12:39:16;100489.38;;;24.13;36.07
74960;BME280;63518;49.572;1.106;2022-09-21T12:41:54;100478.78;;;22.21;41.61
74960;BME280;63518;49.572;1.106;2022-09-21T12:44:37;100484.56;;;21.90;39.66
74960;BME280;63518;49.572;1.106;2022-09-21T12:47:42;100480.13;;;23.29;41.11
74960;BME280;63518;49.572;1.106;2022-09-21T12:50:20;100476.81;;;20.47;42.49
74960;BME280;63518;49.572;1.106;2022-09-21T12:52:49;100474.94;;;19.89;44.91
74960;BME280;63518;49.572;1.106;2022-09-21T12:58:29;100471.63;;;21.11;41.24
74960;BME280;63518;49.572;1.106;2022-09-21T13:09:24;100450.13;;;20.41;46.21
74960;BME280;63518;49.572;1.106;2022-09-21T13:11:58;100460.88;;;19.21;47.45
74960;BME280;63518;49.572;1.106;2022-09-21T13:14:32;100453.88;;;19.10;46.70
74960;BME280;63518;49.572;1.106;2022-09-21T13:17:03;100440.81;;;18.09;49.39
74960;BME280;63518;49.572;1.106;2022-09-21T13:19:33;100446.63;;;18.40;48.33
74960;BME280;63518;49.572;1.106;2022-09-21T13:22:19;100443.50;;;20.05;48.31
74960;BME280;63518;49.572;1.106;2022-09-21T13:25:04;100444.47;;;22.24;44.65
74960;BME280;63518;49.572;1.106;2022-09-21T13:30:42;100434.56;;;23.32;40.82
74960;BME280;63518;49.572;1.106;2022-09-21T13:43:47;100434.38;;;19.46;49.08
74960;BME280;63518;49.572;1.106;2022-09-21T13:49:13;100430.97;;;19.72;47.64
74960;BME280;63518;49.572;1.106;2022-09-21T13:51:56;100432.94;;;19.94;48.88
74960;BME280;63518;49.572;1.106;2022-09-21T13:54:29;100434.25;;;19.15;46.02
74960;BME280;63518;49.572;1.106;2022-09-21T13:57:43;100426.47;;;19.26;47.37
74960;BME280;63518;49.572;1.106;2022-09-21T14:02:37;100427.06;;;21.92;42.98
74960;BME280;63518;49.572;1.106;2022-09-21T14:07:44;100422.47;;;21.70;40.49
74960;BME280;63518;49.572;1.106;2022-09-21T14:10:18;100429.81;;;21.06;43.62
74960;BME280;63518;49.572;1.106;2022-09-21T14:12:48;100426.00;;;19.46;45.44
74960;BME280;63518;49.572;1.106;2022-09-21T14:17:45;100430.03;;;18.35;47.98
74960;BME280;63518;49.572;1.106;2022-09-21T14:20:33;100428.59;;;18.38;48.00
74960;BME280;63518;49.572;1.106;2022-09-21T14:25:58;100421.16;;;18.61;48.86
74960;BME280;63518;49.572;1.106;2022-09-21T14:28:33;100416.16;;;19.49;47.30
74960;BME280;63518;49.572;1.106;2022-09-21T14:31:13;100402.88;;;20.22;46.20
74960;BME280;63518;49.572;1.106;2022-09-21T14:33:44;100406.63;;;21.14;43.61
74960;BME280;63518;49.572;1.106;2022-09-21T14:36:17;100403.13;;;20.82;39.91
74960;BME280;63518;49.572;1.106;2022-09-21T14:38:52;100397.84;;;22.57;39.74
74960;BME280;63518;49.572;1.106;2022-09-21T14:41:22;100399.19;;;22.22;38.58
74960;BME280;63518;49.572;1.106;2022-09-21T14:43:53;100401.53;;;22.88;39.77
74960;BME280;63518;49.572;1.106;2022-09-21T14:47:03;100392.19;;;21.55;39.30
74960;BME280;63518;49.572;1.106;2022-09-21T15:00:43;100388.25;;;18.90;46.03
74960;BME280;63518;49.572;1.106;2022-09-21T15:06:21;100380.50;;;20.44;45.37
74960;BME280;63518;49.572;1.106;2022-09-21T15:12:27;100373.22;;;21.00;42.38
74960;BME280;63518;49.572;1.106;2022-09-21T15:17:59;100365.97;;;21.86;39.18
74960;BME280;63518;49.572;1.106;2022-09-21T15:20:29;100369.28;;;21.01;41.18
74960;BME280;63518;49.572;1.106;2022-09-21T15:22:58;100368.44;;;19.73;44.11
74960;BME280;63518;49.572;1.106;2022-09-21T15:25:31;100362.94;;;19.01;44.86
74960;BME280;63518;49.572;1.106;2022-09-21T15:28:01;100362.19;;;19.09;43.52
74960;BME280;63518;49.572;1.106;2022-09-21T15:30:30;100361.25;;;19.13;46.96
74960;BME280;63518;49.572;1.106;2022-09-21T15:33:00;100356.50;;;18.36;47.10
74960;BME280;63518;49.572;1.106;2022-09-21T15:35:30;100360.09;;;18.23;47.39
74960;BME280;63518;49.572;1.106;2022-09-21T15:37:59;100351.81;;;19.23;45.02
74960;BME280;63518;49.572;1.106;2022-09-21T15:40:32;100351.53;;;20.40;41.67
74960;BME280;63518;49.572;1.106;2022-09-21T15:45:56;100352.19;;;20.94;42.79
74960;BME280;63518;49.572;1.106;2022-09-21T15:48:31;100341.69;;;21.43;40.21
74960;BME280;63518;49.572;1.106;2022-09-21T15:51:16;100346.47;;;21.34;40.31
74960;BME280;63518;49.572;1.106;2022-09-21T15:54:13;100350.66;;;22.39;41.57
74960;BME280;63518;49.572;1.106;2022-09-21T15:56:45;100350.16;;;22.66;39.90